Time;durP1;ratioP1;P1;durP2;ratioP2;P2;SDS_P1;SDS_P2;PMS_P1;PMS_P2;Temp;Humidity;BMP_temperature;BMP_pressure;BME280_temperature;BME280_humidity;BME280_pressure;Samples;Min_cycle;Max_cycle;Signal;HPM_P1;HPM_P2
2021/06/09 00:00:48;;;;;;;;;;;;;;;;;;1479255;40;7019;-63
2021/06/09 00:01:50;;;;;;;;;;;;;;;;;;1479045;40;7035;-65
2021/06/09 00:02:53;;;;;;;;;;;;;;;;;;1479003;40;7063;-64
2021/06/09 00:03:56;;;;;;;;;;;;;;;;;;1479007;40;6999;-64
2021/06/09 00:04:58;;;;;;;;;;;;;;;;;;1478914;40;9263;-66
2021/06/09 00:06:01;;;;;;;;;;;;;;;;;;1478822;40;7918;-62
2021/06/09 00:07:03;;;;;;;;;;;;;;;;;;1478876;40;7027;-65
2021/06/09 00:08:06;;;;;;;;;;;;;;;;;;1479018;40;7007;-65
2021/06/09 00:09:08;;;;;;;;;;;;;;;;;;1478974;40;7086;-63
2021/06/09 00:10:11;;;;;;;;;;;;;;;;;;1478900;40;7906;-67
2021/06/09 00:11:13;;;;;;;;;;;;;;;;;;1478970;40;7936;-64
2021/06/09 00:12:16;;;;;;;;;;;;;;;;;;1479355;39;7118;-65
2021/06/09 00:13:18;;;;;;;;;;;;;;;;;;1479080;40;8816;-64
2021/06/09 00:14:21;;;;;;;;;;;;;;;;;;1478832;40;7024;-67
2021/06/09 00:15:23;;;;;;;;;;;;;;;;;;1479238;40;7008;-65
2021/06/09 00:16:26;;;;;;;;;;;;;;;;;;1479041;40;7917;-63
2021/06/09 00:17:28;;;;;;;;;;;;;;;;;;1479511;40;6999;-66
2021/06/09 00:18:31;;;;;;;;;;;;;;;;;;1482873;40;7008;-64
2021/06/09 00:19:34;;;;;;;;;;;;;;;;;;1479106;40;7011;-64
2021/06/09 00:20:36;;;;;;;;;;;;;;;;;;1478588;40;7015;-63
2021/06/09 00:21:39;;;;;;;;;;;;;;;;;;1480730;40;7910;-64
2021/06/09 00:22:41;;;;;;;;;;;;;;;;;;1481668;40;7868;-66
2021/06/09 00:23:44;;;;;;;;;;;;;;;;;;1477729;40;7127;-63
2021/06/09 00:24:46;;;;;;;;;;;;;;;;;;1478279;40;7031;-64
2021/06/09 00:25:51;;;;;;;;;;;;;;;;;;1478867;40;7911;-63
2021/06/09 00:26:53;;;;;;;;;;;;;;;;;;1478561;40;7109;-64
2021/06/09 00:27:56;;;;;;;;;;;;;;;;;;1478730;40;7035;-64
2021/06/09 00:28:59;;;;;;;;;;;;;;;;;;1482723;40;7280;-65
2021/06/09 00:30:03;;;;;;;;;;;;;;;;;;1482951;40;7007;-65
2021/06/09 00:31:07;;;;;;;;;;;;;;;;;;1482677;40;7586;-65
2021/06/09 00:32:09;;;;;;;;;;;;;;;;;;1481673;40;7003;-64
2021/06/09 00:33:12;;;;;;;;;;;;;;;;;;1477880;40;7070;-66
2021/06/09 00:34:15;;;;;;;;;;;;;;;;;;1482499;40;7173;-67
2021/06/09 00:35:17;;;;;;;;;;;;;;;;;;1482368;40;7016;-65
2021/06/09 00:36:20;;;;;;;;;;;;;;;;;;1478760;40;6999;-67
2021/06/09 00:37:22;;;;;;;;;;;;;;;;;;1478104;40;7728;-62
2021/06/09 00:38:26;;;;;;;;;;;;;;;;;;1479044;40;7916;-64
2021/06/09 00:39:29;;;;;;;;;;;;;;;;;;1479377;40;7848;-65
2021/06/09 00:40:32;;;;;;;;;;;;;;;;;;1479454;40;7182;-63
2021/06/09 00:41:36;;;;;;;;;;;;;;;;;;1478839;40;7924;-66
2021/06/09 00:42:39;;;;;;;;;;;;;;;;;;1479311;40;7016;-66
2021/06/09 00:43:42;;;;;;;;;;;;;;;;;;1478820;40;7903;-66
2021/06/09 00:44:44;;;;;;;;;;;;;;;;;;1478995;40;7027;-65
2021/06/09 00:45:52;;;;;;;;;;;;;;;;;;1479060;40;7003;-65
2021/06/09 00:46:55;;;;;;;;;;;;;;;;;;1483105;40;7000;-64
2021/06/09 00:47:57;;;;;;;;;;;;;;;;;;1486820;40;7004;-65
2021/06/09 00:49:00;;;;;;;;;;;;;;;;;;1483097;40;6999;-64
2021/06/09 00:50:02;;;;;;;;;;;;;;;;;;1483395;40;7006;-64
2021/06/09 00:51:17;;;;;;;;;;;;;;;;;;1480005;40;7011;-67
2021/06/09 00:52:24;;;;;;;;;;;;;;;;;;1479247;40;7008;-64
2021/06/09 00:53:33;;;;;;;;;;;;;;;;;;1478984;40;7116;-67
2021/06/09 00:54:35;;;;;;;;;;;;;;;;;;1479239;40;7035;-64
2021/06/09 00:55:38;;;;;;;;;;;;;;;;;;1479337;40;7012;-63
2021/06/09 00:56:41;;;;;;;;;;;;;;;;;;1478767;40;6999;-67
2021/06/09 00:57:44;;;;;;;;;;;;;;;;;;1479116;40;7114;-65
2021/06/09 00:58:48;;;;;;;;;;;;;;;;;;1478864;40;7933;-64
2021/06/09 00:59:51;;;;;;;;;;;;;;;;;;1479036;40;6999;-65
2021/06/09 01:00:54;;;;;;;;;;;;;;;;;;1479020;40;7000;-62
2021/06/09 01:01:57;;;;;;;;;;;;;;;;;;1478910;40;7004;-68
2021/06/09 01:03:00;;;;;;;;;;;;;;;;;;1478841;40;7035;-65
2021/06/09 01:04:04;;;;;;;;;;;;;;;;;;1478862;40;7048;-66
2021/06/09 01:05:07;;;;;;;;;;;;;;;;;;1478834;40;8235;-64
2021/06/09 01:06:10;;;;;;;;;;;;;;;;;;1478842;40;7900;-64
2021/06/09 01:07:15;;;;;;;;;;;;;;;;;;1478753;40;7122;-63
2021/06/09 01:08:18;;;;;;;;;;;;;;;;;;1478988;40;8071;-64
2021/06/09 01:09:21;;;;;;;;;;;;;;;;;;1479140;40;6995;-63
2021/06/09 01:10:23;;;;;;;;;;;;;;;;;;1479052;40;7035;-67
2021/06/09 01:11:27;;;;;;;;;;;;;;;;;;1478737;40;7223;-66
2021/06/09 01:12:29;;;;;;;;;;;;;;;;;;1478918;40;7000;-63
2021/06/09 01:13:32;;;;;;;;;;;;;;;;;;1478928;40;7027;-67
2021/06/09 01:14:35;;;;;;;;;;;;;;;;;;1479101;40;7007;-64
2021/06/09 01:15:37;;;;;;;;;;;;;;;;;;1478968;40;7187;-67
2021/06/09 01:16:40;;;;;;;;;;;;;;;;;;1478770;40;7110;-65
2021/06/09 01:17:42;;;;;;;;;;;;;;;;;;1480431;40;7111;-63
2021/06/09 01:18:45;;;;;;;;;;;;;;;;;;1482751;40;7065;-63
2021/06/09 01:19:48;;;;;;;;;;;;;;;;;;1480667;40;8369;-67
2021/06/09 01:20:51;;;;;;;;;;;;;;;;;;1478447;40;7008;-62
2021/06/09 01:21:53;;;;;;;;;;;;;;;;;;1481569;40;7007;-62
2021/06/09 01:22:56;;;;;;;;;;;;;;;;;;1481222;40;7011;-66
2021/06/09 01:23:59;;;;;;;;;;;;;;;;;;1478488;40;7518;-66
2021/06/09 01:25:04;;;;;;;;;;;;;;;;;;1478602;40;7895;-63
2021/06/09 01:26:08;;;;;;;;;;;;;;;;;;1478656;40;7877;-62
2021/06/09 01:27:15;;;;;;;;;;;;;;;;;;1479681;40;7123;-66
2021/06/09 01:28:17;;;;;;;;;;;;;;;;;;1482549;40;7003;-65
2021/06/09 01:29:19;;;;;;;;;;;;;;;;;;1482565;40;7003;-63
2021/06/09 01:30:22;;;;;;;;;;;;;;;;;;1482467;40;7049;-63
2021/06/09 01:31:25;;;;;;;;;;;;;;;;;;1482615;40;7003;-64
2021/06/09 01:32:28;;;;;;;;;;;;;;;;;;1482684;40;7881;-64
2021/06/09 01:33:30;;;;;;;;;;;;;;;;;;1482659;40;7016;-63
2021/06/09 01:34:33;;;;;;;;;;;;;;;;;;1482878;40;7171;-64
2021/06/09 01:35:36;;;;;;;;;;;;;;;;;;1482865;40;7116;-62
2021/06/09 01:36:41;;;;;;;;;;;;;;;;;;1482538;40;7104;-65
2021/06/09 01:37:44;;;;;;;;;;;;;;;;;;1480879;40;7457;-65
2021/06/09 01:38:48;;;;;;;;;;;;;;;;;;1483101;40;7929;-63
2021/06/09 01:39:53;;;;;;;;;;;;;;;;;;1482824;40;6999;-64
2021/06/09 01:40:56;;;;;;;;;;;;;;;;;;1478928;40;7011;-63
2021/06/09 01:41:58;;;;;;;;;;;;;;;;;;1478668;40;7004;-63
2021/06/09 01:43:04;;;;;;;;;;;;;;;;;;1479178;40;7031;-62
2021/06/09 01:44:06;;;;;;;;;;;;;;;;;;1478561;40;7896;-63
2021/06/09 01:45:12;;;;;;;;;;;;;;;;;;1479090;40;7115;-66
2021/06/09 01:46:17;;;;;;;;;;;;;;;;;;1478900;40;7035;-65
2021/06/09 01:47:20;;;;;;;;;;;;;;;;;;1481761;40;7120;-65
2021/06/09 01:48:23;;;;;;;;;;;;;;;;;;1482986;40;6999;-65
2021/06/09 01:49:26;;;;;;;;;;;;;;;;;;1483136;40;7048;-67
2021/06/09 01:50:29;;;;;;;;;;;;;;;;;;1482126;40;7031;-63
2021/06/09 01:51:31;;;;;;;;;;;;;;;;;;1478944;40;7067;-64
2021/06/09 01:52:34;;;;;;;;;;;;;;;;;;1478948;40;7853;-62
2021/06/09 01:53:36;;;;;;;;;;;;;;;;;;1479049;40;7000;-66
2021/06/09 01:54:39;;;;;;;;;;;;;;;;;;1478668;40;6999;-62
2021/06/09 01:55:42;;;;;;;;;;;;;;;;;;1478829;40;7281;-66
2021/06/09 01:56:45;;;;;;;;;;;;;;;;;;1478721;40;7008;-65
2021/06/09 01:57:48;;;;;;;;;;;;;;;;;;1478862;40;7004;-66
2021/06/09 01:58:51;;;;;;;;;;;;;;;;;;1478795;40;7923;-65
2021/06/09 01:59:54;;;;;;;;;;;;;;;;;;1478877;40;7007;-63
2021/06/09 02:00:56;;;;;;;;;;;;;;;;;;1478778;40;7008;-65
2021/06/09 02:02:00;;;;;;;;;;;;;;;;;;1478975;40;7121;-62
2021/06/09 02:03:03;;;;;;;;;;;;;;;;;;1478566;40;7847;-64
2021/06/09 02:04:08;;;;;;;;;;;;;;;;;;1479161;40;7119;-65
2021/06/09 02:05:12;;;;;;;;;;;;;;;;;;1483179;40;7044;-68
2021/06/09 02:06:14;;;;;;;;;;;;;;;;;;1483054;40;7966;-67
2021/06/09 02:07:17;;;;;;;;;;;;;;;;;;1482844;40;7055;-65
2021/06/09 02:08:19;;;;;;;;;;;;;;;;;;1482885;40;7035;-67
2021/06/09 02:09:22;;;;;;;;;;;;;;;;;;1482087;40;7039;-67
2021/06/09 02:10:26;;;;;;;;;;;;;;;;;;1479107;40;7039;-64
2021/06/09 02:11:29;;;;;;;;;;;;;;;;;;1478949;40;7036;-66
2021/06/09 02:12:32;;;;;;;;;;;;;;;;;;1478737;40;7007;-67
2021/06/09 02:13:35;;;;;;;;;;;;;;;;;;1478435;40;7074;-64
2021/06/09 02:14:39;;;;;;;;;;;;;;;;;;1478918;40;7008;-65
2021/06/09 02:15:43;;;;;;;;;;;;;;;;;;1478613;40;6999;-63
2021/06/09 02:16:47;;;;;;;;;;;;;;;;;;1478849;40;7051;-67
2021/06/09 02:17:59;;;;;;;;;;;;;;;;;;1480427;40;7016;-64
2021/06/09 02:19:03;;;;;;;;;;;;;;;;;;1481273;40;6995;-63
2021/06/09 02:20:05;;;;;;;;;;;;;;;;;;1478244;40;7943;-67
2021/06/09 02:21:08;;;;;;;;;;;;;;;;;;1478473;40;7035;-64
2021/06/09 02:22:11;;;;;;;;;;;;;;;;;;1477981;40;7926;-64
2021/06/09 02:23:14;;;;;;;;;;;;;;;;;;1478504;40;7007;-65
2021/06/09 02:24:18;;;;;;;;;;;;;;;;;;1478344;40;7230;-62
2021/06/09 02:25:21;;;;;;;;;;;;;;;;;;1478350;40;7123;-65
2021/06/09 02:26:24;;;;;;;;;;;;;;;;;;1478240;40;7052;-63
2021/06/09 02:27:26;;;;;;;;;;;;;;;;;;1478429;40;7036;-64
2021/06/09 02:28:31;;;;;;;;;;;;;;;;;;1478371;40;7108;-66
2021/06/09 02:29:34;;;;;;;;;;;;;;;;;;1478308;40;7935;-64
2021/06/09 02:30:37;;;;;;;;;;;;;;;;;;1482164;40;7019;-65
2021/06/09 02:31:50;;;;;;;;;;;;;;;;;;1482619;40;7934;-63
2021/06/09 02:32:53;;;;;;;;;;;;;;;;;;1481442;40;7094;-66
2021/06/09 02:33:56;;;;;;;;;;;;;;;;;;1485248;40;6999;-64
2021/06/09 02:34:59;;;;;;;;;;;;;;;;;;1486702;40;6988;-64
2021/06/09 02:36:01;;;;;;;;;;;;;;;;;;1482804;40;7047;-64
2021/06/09 02:37:04;;;;;;;;;;;;;;;;;;1482144;40;7012;-68
2021/06/09 02:38:07;;;;;;;;;;;;;;;;;;1482606;40;7004;-63
2021/06/09 02:39:11;;;;;;;;;;;;;;;;;;1482773;40;7540;-65
2021/06/09 02:40:13;;;;;;;;;;;;;;;;;;1482718;40;7035;-66
2021/06/09 02:41:16;;;;;;;;;;;;;;;;;;1482943;40;6999;-67
2021/06/09 02:42:20;;;;;;;;;;;;;;;;;;1482719;40;7047;-64
2021/06/09 02:43:30;;;;;;;;;;;;;;;;;;1482734;40;7020;-68
2021/06/09 02:44:32;;;;;;;;;;;;;;;;;;1483284;40;7007;-64
2021/06/09 02:45:35;;;;;;;;;;;;;;;;;;1483253;40;7009;-66
2021/06/09 02:46:39;;;;;;;;;;;;;;;;;;1483292;40;6999;-64
2021/06/09 02:47:47;;;;;;;;;;;;;;;;;;1478463;40;7007;-63
2021/06/09 02:48:54;;;;;;;;;;;;;;;;;;1478683;40;7008;-64
2021/06/09 02:49:59;;;;;;;;;;;;;;;;;;1479078;40;7114;-65
2021/06/09 02:51:02;;;;;;;;;;;;;;;;;;1481528;40;7012;-65
2021/06/09 02:52:08;;;;;;;;;;;;;;;;;;1478709;40;7956;-65
2021/06/09 02:53:19;;;;;;;;;;;;;;;;;;1478500;40;7960;-64
2021/06/09 02:54:31;;;;;;;;;;;;;;;;;;1478728;40;7133;-65
2021/06/09 02:55:44;;;;;;;;;;;;;;;;;;1478950;40;6999;-67
2021/06/09 02:57:05;;;;;;;;;;;;;;;;;;1478666;40;6999;-63
2021/06/09 02:58:17;;;;;;;;;;;;;;;;;;1479460;40;7011;-68
2021/06/09 02:59:44;;;;;;;;;;;;;;;;;;1479148;40;7007;-65
2021/06/09 03:00:49;;;;;;;;;;;;;;;;;;1479111;40;8807;-64
2021/06/09 03:02:00;;;;;;;;;;;;;;;;;;1478957;40;7015;-65
2021/06/09 03:03:26;;;;;;;;;;;;;;;;;;1479229;40;7043;-64
2021/06/09 03:04:47;;;;;;;;;;;;;;;;;;1478628;40;7134;-64
2021/06/09 03:06:03;;;;;;;;;;;;;;;;;;1479060;40;7035;-66
2021/06/09 03:07:12;;;;;;;;;;;;;;;;;;1479160;40;7036;-66
2021/06/09 03:08:21;;;;;;;;;;;;;;;;;;1479237;40;7894;-64
2021/06/09 03:09:37;;;;;;;;;;;;;;;;;;1479217;40;7031;-64
2021/06/09 03:10:40;;;;;;;;;;;;;;;;;;1479634;40;7004;-65
2021/06/09 03:11:54;;;;;;;;;;;;;;;;;;1478844;40;7003;-63
2021/06/09 03:13:03;;;;;;;;;;;;;;;;;;1480139;40;7034;-66
2021/06/09 03:15:40;;;;;;;;;;;;;;;;;;1478880;40;7043;-64
2021/06/09 03:16:53;;;;;;;;;;;;;;;;;;1479074;40;8489;-65
2021/06/09 03:18:03;;;;;;;;;;;;;;;;;;1481535;40;7000;-64
2021/06/09 03:19:09;;;;;;;;;;;;;;;;;;1481418;40;7211;-66
2021/06/09 03:20:17;;;;;;;;;;;;;;;;;;1478709;40;7861;-64
2021/06/09 03:21:24;;;;;;;;;;;;;;;;;;1482620;40;8069;-64
2021/06/09 03:22:45;;;;;;;;;;;;;;;;;;1479052;40;7843;-67
2021/06/09 03:24:01;;;;;;;;;;;;;;;;;;1482507;40;7007;-66
2021/06/09 03:25:04;;;;;;;;;;;;;;;;;;1478632;40;7035;-65
2021/06/09 03:26:13;;;;;;;;;;;;;;;;;;1479001;40;8339;-66
2021/06/09 03:27:18;;;;;;;;;;;;;;;;;;1481009;40;7257;-64
2021/06/09 03:28:26;;;;;;;;;;;;;;;;;;1478873;40;7004;-63
2021/06/09 03:29:35;;;;;;;;;;;;;;;;;;1480554;40;7000;-65
2021/06/09 03:30:40;;;;;;;;;;;;;;;;;;1482851;40;8315;-63
2021/06/09 03:31:48;;;;;;;;;;;;;;;;;;1483027;40;7127;-66
2021/06/09 03:32:54;;;;;;;;;;;;;;;;;;1479703;40;7112;-65
2021/06/09 03:34:00;;;;;;;;;;;;;;;;;;1479048;40;7012;-65
2021/06/09 03:35:13;;;;;;;;;;;;;;;;;;1479609;40;7023;-65
2021/06/09 03:36:22;;;;;;;;;;;;;;;;;;1482047;40;7919;-64
2021/06/09 03:37:26;;;;;;;;;;;;;;;;;;1482615;40;7036;-66
2021/06/09 03:38:33;;;;;;;;;;;;;;;;;;1486651;40;7876;-66
2021/06/09 03:39:36;;;;;;;;;;;;;;;;;;1482181;40;7424;-63
2021/06/09 03:40:41;;;;;;;;;;;;;;;;;;1479462;40;7250;-63
2021/06/09 03:41:46;;;;;;;;;;;;;;;;;;1479326;40;7023;-65
2021/06/09 03:42:54;;;;;;;;;;;;;;;;;;1479146;40;7031;-67
2021/06/09 03:43:59;;;;;;;;;;;;;;;;;;1479646;40;7058;-66
2021/06/09 03:45:03;;;;;;;;;;;;;;;;;;1479238;40;7112;-67
2021/06/09 03:46:07;;;;;;;;;;;;;;;;;;1479253;40;7053;-66
2021/06/09 03:47:12;;;;;;;;;;;;;;;;;;1480266;40;7876;-66
2021/06/09 03:48:17;;;;;;;;;;;;;;;;;;1479091;40;8045;-65
2021/06/09 03:49:23;;;;;;;;;;;;;;;;;;1479374;40;7187;-65
2021/06/09 03:50:25;;;;;;;;;;;;;;;;;;1479122;40;7903;-63
2021/06/09 03:51:30;;;;;;;;;;;;;;;;;;1483251;40;7911;-64
2021/06/09 03:52:33;;;;;;;;;;;;;;;;;;1483381;40;7893;-65
2021/06/09 03:53:39;;;;;;;;;;;;;;;;;;1480804;40;7034;-64
2021/06/09 03:54:43;;;;;;;;;;;;;;;;;;1479176;40;7007;-65
2021/06/09 03:55:47;;;;;;;;;;;;;;;;;;1478884;40;7921;-67
2021/06/09 03:56:51;;;;;;;;;;;;;;;;;;1479092;40;7206;-62
2021/06/09 03:57:57;;;;;;;;;;;;;;;;;;1479043;40;7119;-65
2021/06/09 03:59:02;;;;;;;;;;;;;;;;;;1479283;40;7008;-65
2021/06/09 04:00:06;;;;;;;;;;;;;;;;;;1479016;40;8441;-64
2021/06/09 04:01:11;;;;;;;;;;;;;;;;;;1479162;40;8000;-64
2021/06/09 04:02:14;;;;;;;;;;;;;;;;;;1478872;40;7121;-64
2021/06/09 04:03:18;;;;;;;;;;;;;;;;;;1479218;40;7035;-66
2021/06/09 04:04:21;;;;;;;;;;;;;;;;;;1478907;40;7019;-64
2021/06/09 04:05:26;;;;;;;;;;;;;;;;;;1479680;40;7211;-66
2021/06/09 04:06:29;;;;;;;;;;;;;;;;;;1479608;40;7035;-62
2021/06/09 04:07:33;;;;;;;;;;;;;;;;;;1478956;40;7922;-66
2021/06/09 04:08:37;;;;;;;;;;;;;;;;;;1479557;40;7039;-66
2021/06/09 04:09:42;;;;;;;;;;;;;;;;;;1479104;40;7031;-64
2021/06/09 04:10:47;;;;;;;;;;;;;;;;;;1479125;40;7903;-64
2021/06/09 04:11:52;;;;;;;;;;;;;;;;;;1479323;40;7050;-66
2021/06/09 04:12:56;;;;;;;;;;;;;;;;;;1479211;40;7054;-66
2021/06/09 04:14:00;;;;;;;;;;;;;;;;;;1479362;40;7896;-64
2021/06/09 04:15:05;;;;;;;;;;;;;;;;;;1479229;40;7034;-66
2021/06/09 04:16:09;;;;;;;;;;;;;;;;;;1479112;40;7012;-64
2021/06/09 04:17:13;;;;;;;;;;;;;;;;;;1478974;40;7012;-64
2021/06/09 04:18:16;;;;;;;;;;;;;;;;;;1478978;40;7003;-65
2021/06/09 04:19:23;;;;;;;;;;;;;;;;;;1480791;40;7008;-63
2021/06/09 04:20:27;;;;;;;;;;;;;;;;;;1482192;40;7016;-65
2021/06/09 04:21:30;;;;;;;;;;;;;;;;;;1480189;40;7926;-63
2021/06/09 04:22:33;;;;;;;;;;;;;;;;;;1482634;40;7035;-65
2021/06/09 04:23:36;;;;;;;;;;;;;;;;;;1482920;40;7031;-67
2021/06/09 04:24:40;;;;;;;;;;;;;;;;;;1486485;40;7909;-62
2021/06/09 04:25:43;;;;;;;;;;;;;;;;;;1486395;40;6999;-62
2021/06/09 04:26:46;;;;;;;;;;;;;;;;;;1482993;40;7031;-64
2021/06/09 04:27:49;;;;;;;;;;;;;;;;;;1483112;40;7031;-65
2021/06/09 04:28:54;;;;;;;;;;;;;;;;;;1483624;40;7051;-65
2021/06/09 04:29:57;;;;;;;;;;;;;;;;;;1483288;40;7910;-66
2021/06/09 04:31:00;;;;;;;;;;;;;;;;;;1478943;40;7968;-64
2021/06/09 04:32:04;;;;;;;;;;;;;;;;;;1478333;40;7051;-63
2021/06/09 04:33:10;;;;;;;;;;;;;;;;;;1479942;40;7031;-66
2021/06/09 04:34:13;;;;;;;;;;;;;;;;;;1478803;40;7004;-61
2021/06/09 04:35:16;;;;;;;;;;;;;;;;;;1478689;40;7039;-65
2021/06/09 04:36:18;;;;;;;;;;;;;;;;;;1478915;40;7027;-63
2021/06/09 04:37:23;;;;;;;;;;;;;;;;;;1478703;40;7031;-66
2021/06/09 04:38:26;;;;;;;;;;;;;;;;;;1479275;40;7133;-66
2021/06/09 04:39:28;;;;;;;;;;;;;;;;;;1479384;40;7008;-65
2021/06/09 04:40:31;;;;;;;;;;;;;;;;;;1479358;40;6999;-65
2021/06/09 04:41:33;;;;;;;;;;;;;;;;;;1479291;40;7120;-64
2021/06/09 04:42:36;;;;;;;;;;;;;;;;;;1478725;40;7993;-64
2021/06/09 04:43:40;;;;;;;;;;;;;;;;;;1478464;40;7039;-66
2021/06/09 04:44:43;;;;;;;;;;;;;;;;;;1479412;40;7007;-64
2021/06/09 04:45:45;;;;;;;;;;;;;;;;;;1479203;40;7000;-65
2021/06/09 04:46:51;;;;;;;;;;;;;;;;;;1479964;40;6999;-63
2021/06/09 04:47:54;;;;;;;;;;;;;;;;;;1483221;40;7103;-68
2021/06/09 04:49:04;;;;;;;;;;;;;;;;;;1483446;40;6991;-65
2021/06/09 04:50:08;;;;;;;;;;;;;;;;;;1481910;40;7747;-66
2021/06/09 04:51:10;;;;;;;;;;;;;;;;;;1479799;40;7046;-64
2021/06/09 04:52:13;;;;;;;;;;;;;;;;;;1478963;40;7012;-65
2021/06/09 04:53:17;;;;;;;;;;;;;;;;;;1478661;40;8291;-65
2021/06/09 04:54:20;;;;;;;;;;;;;;;;;;1479116;40;7005;-63
2021/06/09 04:55:22;;;;;;;;;;;;;;;;;;1479201;40;7915;-64
2021/06/09 04:56:29;;;;;;;;;;;;;;;;;;1479111;40;7043;-65
2021/06/09 04:57:32;;;;;;;;;;;;;;;;;;1478969;40;7050;-65
2021/06/09 04:58:34;;;;;;;;;;;;;;;;;;1479001;40;7116;-64
2021/06/09 04:59:36;;;;;;;;;;;;;;;;;;1479077;40;6999;-67
2021/06/09 05:00:40;;;;;;;;;;;;;;;;;;1479246;40;7137;-63
2021/06/09 05:01:42;;;;;;;;;;;;;;;;;;1479111;40;7008;-66
2021/06/09 05:02:45;;;;;;;;;;;;;;;;;;1479189;40;7039;-64
2021/06/09 05:03:47;;;;;;;;;;;;;;;;;;1479396;40;7859;-65
2021/06/09 05:04:49;;;;;;;;;;;;;;;;;;1478772;40;7003;-65
2021/06/09 05:05:52;;;;;;;;;;;;;;;;;;1483265;40;7269;-62
2021/06/09 05:06:54;;;;;;;;;;;;;;;;;;1483326;40;7253;-63
2021/06/09 05:07:57;;;;;;;;;;;;;;;;;;1483307;40;7108;-65
2021/06/09 05:08:59;;;;;;;;;;;;;;;;;;1483174;40;7694;-62
2021/06/09 05:10:03;;;;;;;;;;;;;;;;;;1483098;40;6999;-65
2021/06/09 05:11:09;;;;;;;;;;;;;;;;;;1483120;40;7016;-65
2021/06/09 05:12:11;;;;;;;;;;;;;;;;;;1483346;40;7039;-64
2021/06/09 05:13:17;;;;;;;;;;;;;;;;;;1483463;40;7048;-65
2021/06/09 05:14:25;;;;;;;;;;;;;;;;;;1483173;40;8004;-65
2021/06/09 05:15:29;;;;;;;;;;;;;;;;;;1483137;40;7036;-64
2021/06/09 05:16:34;;;;;;;;;;;;;;;;;;1483171;40;7950;-65
2021/06/09 05:17:40;;;;;;;;;;;;;;;;;;1479822;40;7090;-65
2021/06/09 05:18:45;;;;;;;;;;;;;;;;;;1482534;40;7962;-66
2021/06/09 05:19:49;;;;;;;;;;;;;;;;;;1478264;40;7012;-64
2021/06/09 05:20:52;;;;;;;;;;;;;;;;;;1478658;40;7876;-66
2021/06/09 05:22:01;;;;;;;;;;;;;;;;;;1478786;40;7903;-65
2021/06/09 05:23:09;;;;;;;;;;;;;;;;;;1478392;40;7921;-63
2021/06/09 05:24:13;;;;;;;;;;;;;;;;;;1478736;40;7035;-64
2021/06/09 05:25:18;;;;;;;;;;;;;;;;;;1478796;40;7955;-68
2021/06/09 05:26:22;;;;;;;;;;;;;;;;;;1478806;40;7016;-64
2021/06/09 05:27:26;;;;;;;;;;;;;;;;;;1478528;40;7011;-64
2021/06/09 05:28:32;;;;;;;;;;;;;;;;;;1479053;40;8269;-64
2021/06/09 05:29:37;;;;;;;;;;;;;;;;;;1479047;40;7024;-65
2021/06/09 05:30:40;;;;;;;;;;;;;;;;;;1482204;40;7003;-64
2021/06/09 05:31:46;;;;;;;;;;;;;;;;;;1486320;40;7004;-66
2021/06/09 05:32:50;;;;;;;;;;;;;;;;;;1483145;40;7007;-63
2021/06/09 05:33:54;;;;;;;;;;;;;;;;;;1482846;40;6999;-64
2021/06/09 05:34:57;;;;;;;;;;;;;;;;;;1483135;40;7916;-63
2021/06/09 05:36:00;;;;;;;;;;;;;;;;;;1483011;40;7003;-64
2021/06/09 05:37:04;;;;;;;;;;;;;;;;;;1482452;40;7251;-64
2021/06/09 05:38:06;;;;;;;;;;;;;;;;;;1482854;40;7841;-66
2021/06/09 05:39:09;;;;;;;;;;;;;;;;;;1483404;40;7008;-65
2021/06/09 05:40:16;;;;;;;;;;;;;;;;;;1483203;40;6996;-65
2021/06/09 05:41:18;;;;;;;;;;;;;;;;;;1483122;40;7007;-63
2021/06/09 05:42:21;;;;;;;;;;;;;;;;;;1483074;40;7043;-65
2021/06/09 05:43:25;;;;;;;;;;;;;;;;;;1483041;40;7044;-64
2021/06/09 05:44:29;;;;;;;;;;;;;;;;;;1483351;40;7899;-66
2021/06/09 05:45:33;;;;;;;;;;;;;;;;;;1483182;40;7011;-64
2021/06/09 05:46:35;;;;;;;;;;;;;;;;;;1478654;40;7111;-66
2021/06/09 05:47:47;;;;;;;;;;;;;;;;;;1482488;40;7047;-65
2021/06/09 05:48:50;;;;;;;;;;;;;;;;;;1483295;40;7004;-65
2021/06/09 05:50:11;;;;;;;;;;;;;;;;;;1482816;40;8787;-65
2021/06/09 05:51:15;;;;;;;;;;;;;;;;;;1479147;40;7007;-63
2021/06/09 05:52:18;;;;;;;;;;;;;;;;;;1478765;40;7030;-63
2021/06/09 05:53:22;;;;;;;;;;;;;;;;;;1478823;40;7008;-65
2021/06/09 05:54:24;;;;;;;;;;;;;;;;;;1478727;40;7102;-66
2021/06/09 05:55:28;;;;;;;;;;;;;;;;;;1478920;40;7052;-63
2021/06/09 05:56:30;;;;;;;;;;;;;;;;;;1479098;40;7003;-65
2021/06/09 05:57:33;;;;;;;;;;;;;;;;;;1478995;40;7015;-66
2021/06/09 05:58:38;;;;;;;;;;;;;;;;;;1478871;40;7051;-64
2021/06/09 05:59:40;;;;;;;;;;;;;;;;;;1478805;40;7923;-63
2021/06/09 06:00:44;;;;;;;;;;;;;;;;;;1478984;40;7954;-65
2021/06/09 06:01:46;;;;;;;;;;;;;;;;;;1478936;40;6999;-65
2021/06/09 06:02:50;;;;;;;;;;;;;;;;;;1482127;40;7257;-65
2021/06/09 06:03:53;;;;;;;;;;;;;;;;;;1482368;40;7031;-63
2021/06/09 06:04:57;;;;;;;;;;;;;;;;;;1479148;40;7907;-63
2021/06/09 06:06:03;;;;;;;;;;;;;;;;;;1478876;40;7910;-65
2021/06/09 06:07:09;;;;;;;;;;;;;;;;;;1479317;40;7572;-67
2021/06/09 06:08:12;;;;;;;;;;;;;;;;;;1479171;40;7179;-64
2021/06/09 06:09:16;;;;;;;;;;;;;;;;;;1478756;40;7007;-63
2021/06/09 06:10:20;;;;;;;;;;;;;;;;;;1478718;40;7008;-64
2021/06/09 06:11:23;;;;;;;;;;;;;;;;;;1478800;40;7011;-67
2021/06/09 06:12:26;;;;;;;;;;;;;;;;;;1478844;40;7039;-63
2021/06/09 06:13:28;;;;;;;;;;;;;;;;;;1478623;40;7951;-67
2021/06/09 06:14:31;;;;;;;;;;;;;;;;;;1478883;40;7115;-64
2021/06/09 06:15:35;;;;;;;;;;;;;;;;;;1478187;40;6999;-63
2021/06/09 06:16:48;;;;;;;;;;;;;;;;;;1478346;40;7008;-65
2021/06/09 06:17:50;;;;;;;;;;;;;;;;;;1481239;40;7003;-66
2021/06/09 06:18:54;;;;;;;;;;;;;;;;;;1481848;40;7187;-64
2021/06/09 06:19:57;;;;;;;;;;;;;;;;;;1478490;40;7004;-63
2021/06/09 06:21:00;;;;;;;;;;;;;;;;;;1478601;40;7111;-66
2021/06/09 06:22:09;;;;;;;;;;;;;;;;;;1482320;40;7083;-66
2021/06/09 06:23:13;;;;;;;;;;;;;;;;;;1479821;40;7117;-66
2021/06/09 06:24:17;;;;;;;;;;;;;;;;;;1478506;40;7838;-67
2021/06/09 06:25:23;;;;;;;;;;;;;;;;;;1478280;40;7123;-67
2021/06/09 06:26:26;;;;;;;;;;;;;;;;;;1478610;40;7180;-65
2021/06/09 06:27:30;;;;;;;;;;;;;;;;;;1478926;40;6999;-66
2021/06/09 06:28:33;;;;;;;;;;;;;;;;;;1478806;40;7108;-62
2021/06/09 06:29:40;;;;;;;;;;;;;;;;;;1479959;40;7031;-64
2021/06/09 06:30:42;;;;;;;;;;;;;;;;;;1481909;40;7351;-67
2021/06/09 06:31:46;;;;;;;;;;;;;;;;;;1483176;40;7035;-63
2021/06/09 06:32:50;;;;;;;;;;;;;;;;;;1483538;40;7007;-63
2021/06/09 06:33:54;;;;;;;;;;;;;;;;;;1483296;40;7012;-65
2021/06/09 06:34:58;;;;;;;;;;;;;;;;;;1483641;40;7035;-67
2021/06/09 06:36:01;;;;;;;;;;;;;;;;;;1483325;40;7097;-65
2021/06/09 06:37:04;;;;;;;;;;;;;;;;;;1482836;40;7559;-65
2021/06/09 06:38:07;;;;;;;;;;;;;;;;;;1483070;40;7221;-63
2021/06/09 06:39:09;;;;;;;;;;;;;;;;;;1483515;40;7956;-65
2021/06/09 06:40:12;;;;;;;;;;;;;;;;;;1483437;40;6999;-63
2021/06/09 06:41:18;;;;;;;;;;;;;;;;;;1483451;40;7048;-65
2021/06/09 06:42:21;;;;;;;;;;;;;;;;;;1480815;40;7915;-65
2021/06/09 06:43:23;;;;;;;;;;;;;;;;;;1479692;40;7027;-64
2021/06/09 06:44:26;;;;;;;;;;;;;;;;;;1479436;40;7003;-68
2021/06/09 06:45:30;;;;;;;;;;;;;;;;;;1479431;40;7919;-64
2021/06/09 06:46:33;;;;;;;;;;;;;;;;;;1479422;40;7003;-64
2021/06/09 06:47:36;;;;;;;;;;;;;;;;;;1483399;40;7007;-64
2021/06/09 06:48:40;;;;;;;;;;;;;;;;;;1483328;40;9288;-64
2021/06/09 06:49:43;;;;;;;;;;;;;;;;;;1483583;40;7886;-65
2021/06/09 06:50:46;;;;;;;;;;;;;;;;;;1481501;40;7092;-65
2021/06/09 06:51:51;;;;;;;;;;;;;;;;;;1479688;40;7067;-64
2021/06/09 06:52:55;;;;;;;;;;;;;;;;;;1479420;40;7003;-64
2021/06/09 06:53:58;;;;;;;;;;;;;;;;;;1479362;40;7003;-65
2021/06/09 06:55:04;;;;;;;;;;;;;;;;;;1479291;40;7894;-66
2021/06/09 06:56:07;;;;;;;;;;;;;;;;;;1479455;40;6999;-67
2021/06/09 06:57:12;;;;;;;;;;;;;;;;;;1479386;40;7007;-64
2021/06/09 06:58:15;;;;;;;;;;;;;;;;;;1479541;40;7031;-67
2021/06/09 06:59:20;;;;;;;;;;;;;;;;;;1479317;40;7007;-65
2021/06/09 07:00:23;;;;;;;;;;;;;;;;;;1479226;40;7034;-65
2021/06/09 07:01:31;;;;;;;;;;;;;;;;;;1479398;40;7199;-63
2021/06/09 07:02:34;;;;;;;;;;;;;;;;;;1479357;40;7003;-66
2021/06/09 07:03:37;;;;;;;;;;;;;;;;;;1479572;40;7067;-63
2021/06/09 07:04:40;;;;;;;;;;;;;;;;;;1479769;40;7027;-66
2021/06/09 07:05:42;;;;;;;;;;;;;;;;;;1479538;40;7003;-64
2021/06/09 07:06:45;;;;;;;;;;;;;;;;;;1479471;40;7112;-64
2021/06/09 07:07:55;;;;;;;;;;;;;;;;;;1478929;40;7059;-63
2021/06/09 07:08:58;;;;;;;;;;;;;;;;;;1479399;40;7003;-64
2021/06/09 07:10:02;;;;;;;;;;;;;;;;;;1479309;40;7104;-65
2021/06/09 07:11:06;;;;;;;;;;;;;;;;;;1479281;40;7019;-63
2021/06/09 07:12:09;;;;;;;;;;;;;;;;;;1479242;40;7112;-64
2021/06/09 07:13:12;;;;;;;;;;;;;;;;;;1479522;40;7056;-64
2021/06/09 07:14:15;;;;;;;;;;;;;;;;;;1479394;40;7936;-63
2021/06/09 07:15:19;;;;;;;;;;;;;;;;;;1479479;40;6999;-66
2021/06/09 07:16:23;;;;;;;;;;;;;;;;;;1479610;40;7035;-66
2021/06/09 07:17:27;;;;;;;;;;;;;;;;;;1479671;40;6995;-65
2021/06/09 07:18:30;;;;;;;;;;;;;;;;;;1483461;40;7884;-64
2021/06/09 07:19:37;;;;;;;;;;;;;;;;;;1479312;40;6999;-65
2021/06/09 07:20:49;;;;;;;;;;;;;;;;;;1479018;40;7015;-64
2021/06/09 07:21:51;;;;;;;;;;;;;;;;;;1481889;40;7035;-64
2021/06/09 07:22:55;;;;;;;;;;;;;;;;;;1482053;40;7254;-64
2021/06/09 07:23:59;;;;;;;;;;;;;;;;;;1478952;40;7117;-62
2021/06/09 07:25:03;;;;;;;;;;;;;;;;;;1479066;40;6999;-65
2021/06/09 07:26:06;;;;;;;;;;;;;;;;;;1479973;40;7035;-63
2021/06/09 07:27:09;;;;;;;;;;;;;;;;;;1483089;40;7772;-63
2021/06/09 07:28:13;;;;;;;;;;;;;;;;;;1483149;40;6999;-66
2021/06/09 07:29:19;;;;;;;;;;;;;;;;;;1483184;40;7399;-65